sensor_id;sensor_type;location;lat;lon;timestamp;temperature;humidity
14585;DHT22;7379;51.506;11.876;2023-07-24T00:01:20;22.30;54.90
14585;DHT22;7379;51.506;11.876;2023-07-24T00:03:48;22.30;54.90
14585;DHT22;7379;51.506;11.876;2023-07-24T00:06:14;22.30;54.80
14585;DHT22;7379;51.506;11.876;2023-07-24T00:08:41;22.30;54.80
14585;DHT22;7379;51.506;11.876;2023-07-24T00:11:08;22.30;55.00
14585;DHT22;7379;51.506;11.876;2023-07-24T00:13:35;22.30;55.10
14585;DHT22;7379;51.506;11.876;2023-07-24T00:16:06;22.30;54.90
14585;DHT22;7379;51.506;11.876;2023-07-24T00:18:33;22.30;55.10
14585;DHT22;7379;51.506;11.876;2023-07-24T00:21:01;22.20;55.00
14585;DHT22;7379;51.506;11.876;2023-07-24T00:23:28;22.20;55.10
14585;DHT22;7379;51.506;11.876;2023-07-24T00:25:54;22.20;55.20
14585;DHT22;7379;51.506;11.876;2023-07-24T00:28:21;22.20;55.20
14585;DHT22;7379;51.506;11.876;2023-07-24T00:30:48;22.20;55.40
14585;DHT22;7379;51.506;11.876;2023-07-24T00:33:14;22.20;55.40
14585;DHT22;7379;51.506;11.876;2023-07-24T00:35:41;22.20;55.50
14585;DHT22;7379;51.506;11.876;2023-07-24T00:38:09;22.20;55.60
14585;DHT22;7379;51.506;11.876;2023-07-24T00:40:36;22.20;55.70
14585;DHT22;7379;51.506;11.876;2023-07-24T00:43:03;22.20;55.70
14585;DHT22;7379;51.506;11.876;2023-07-24T00:45:29;22.20;55.70
14585;DHT22;7379;51.506;11.876;2023-07-24T00:47:57;22.20;55.60
14585;DHT22;7379;51.506;11.876;2023-07-24T00:50:25;22.20;55.80
14585;DHT22;7379;51.506;11.876;2023-07-24T00:52:52;22.20;55.80
14585;DHT22;7379;51.506;11.876;2023-07-24T00:55:20;22.20;55.80
14585;DHT22;7379;51.506;11.876;2023-07-24T00:57:47;22.10;55.80
14585;DHT22;7379;51.506;11.876;2023-07-24T01:00:14;22.10;55.70
14585;DHT22;7379;51.506;11.876;2023-07-24T01:02:41;22.10;55.70
14585;DHT22;7379;51.506;11.876;2023-07-24T01:05:08;22.10;55.80
14585;DHT22;7379;51.506;11.876;2023-07-24T01:07:37;22.10;55.90
14585;DHT22;7379;51.506;11.876;2023-07-24T01:10:05;22.10;55.80
14585;DHT22;7379;51.506;11.876;2023-07-24T01:12:39;22.10;55.90
14585;DHT22;7379;51.506;11.876;2023-07-24T01:15:10;22.10;55.90
14585;DHT22;7379;51.506;11.876;2023-07-24T01:17:43;22.10;56.00
14585;DHT22;7379;51.506;11.876;2023-07-24T01:20:12;22.10;56.00
14585;DHT22;7379;51.506;11.876;2023-07-24T01:22:48;22.10;56.00
14585;DHT22;7379;51.506;11.876;2023-07-24T01:25:23;22.10;55.90
14585;DHT22;7379;51.506;11.876;2023-07-24T01:27:55;22.10;56.00
14585;DHT22;7379;51.506;11.876;2023-07-24T01:30:22;22.10;55.90
14585;DHT22;7379;51.506;11.876;2023-07-24T01:32:49;22.00;55.90
14585;DHT22;7379;51.506;11.876;2023-07-24T01:35:16;22.10;56.00
14585;DHT22;7379;51.506;11.876;2023-07-24T01:37:43;22.00;56.00
14585;DHT22;7379;51.506;11.876;2023-07-24T01:40:12;22.00;56.10
14585;DHT22;7379;51.506;11.876;2023-07-24T01:42:40;22.00;56.10
14585;DHT22;7379;51.506;11.876;2023-07-24T01:45:09;22.00;56.00
14585;DHT22;7379;51.506;11.876;2023-07-24T01:47:37;22.00;56.00
14585;DHT22;7379;51.506;11.876;2023-07-24T01:50:04;22.00;56.00
14585;DHT22;7379;51.506;11.876;2023-07-24T01:52:31;22.00;56.00
14585;DHT22;7379;51.506;11.876;2023-07-24T01:54:58;22.00;56.00
14585;DHT22;7379;51.506;11.876;2023-07-24T01:57:25;22.00;56.00
14585;DHT22;7379;51.506;11.876;2023-07-24T01:59:51;22.00;56.00
14585;DHT22;7379;51.506;11.876;2023-07-24T02:02:19;22.00;56.10
14585;DHT22;7379;51.506;11.876;2023-07-24T02:04:46;22.00;56.00
14585;DHT22;7379;51.506;11.876;2023-07-24T02:07:13;22.00;56.00
14585;DHT22;7379;51.506;11.876;2023-07-24T02:09:40;22.00;56.10
14585;DHT22;7379;51.506;11.876;2023-07-24T02:12:07;21.90;56.00
14585;DHT22;7379;51.506;11.876;2023-07-24T02:14:33;21.90;56.10
14585;DHT22;7379;51.506;11.876;2023-07-24T02:17:00;21.90;56.10
14585;DHT22;7379;51.506;11.876;2023-07-24T02:19:28;21.90;56.10
14585;DHT22;7379;51.506;11.876;2023-07-24T02:21:55;21.90;56.20
14585;DHT22;7379;51.506;11.876;2023-07-24T02:24:21;21.90;56.20
14585;DHT22;7379;51.506;11.876;2023-07-24T02:26:48;21.90;56.20
14585;DHT22;7379;51.506;11.876;2023-07-24T02:29:15;21.90;56.30
14585;DHT22;7379;51.506;11.876;2023-07-24T02:31:42;21.90;56.30
14585;DHT22;7379;51.506;11.876;2023-07-24T02:34:09;21.90;56.30
14585;DHT22;7379;51.506;11.876;2023-07-24T02:36:37;21.90;56.40
14585;DHT22;7379;51.506;11.876;2023-07-24T02:39:04;21.90;56.40
14585;DHT22;7379;51.506;11.876;2023-07-24T02:41:31;21.90;56.50
14585;DHT22;7379;51.506;11.876;2023-07-24T02:43:57;21.90;56.50
14585;DHT22;7379;51.506;11.876;2023-07-24T02:46:24;21.90;56.60
14585;DHT22;7379;51.506;11.876;2023-07-24T02:48:51;21.80;56.60
14585;DHT22;7379;51.506;11.876;2023-07-24T02:51:18;21.80;56.60
14585;DHT22;7379;51.506;11.876;2023-07-24T02:53:46;21.80;56.70
14585;DHT22;7379;51.506;11.876;2023-07-24T02:56:12;21.80;56.80
14585;DHT22;7379;51.506;11.876;2023-07-24T02:58:39;21.80;56.90
14585;DHT22;7379;51.506;11.876;2023-07-24T03:01:06;21.80;57.00
14585;DHT22;7379;51.506;11.876;2023-07-24T03:03:34;21.80;57.00
14585;DHT22;7379;51.506;11.876;2023-07-24T03:06:01;21.80;57.00
14585;DHT22;7379;51.506;11.876;2023-07-24T03:08:27;21.80;57.10
14585;DHT22;7379;51.506;11.876;2023-07-24T03:10:56;21.80;57.10
14585;DHT22;7379;51.506;11.876;2023-07-24T03:13:22;21.80;57.20
14585;DHT22;7379;51.506;11.876;2023-07-24T03:15:53;21.70;57.20
14585;DHT22;7379;51.506;11.876;2023-07-24T03:18:20;21.70;57.10
14585;DHT22;7379;51.506;11.876;2023-07-24T03:20:47;21.70;57.00
14585;DHT22;7379;51.506;11.876;2023-07-24T03:23:14;21.70;57.10
14585;DHT22;7379;51.506;11.876;2023-07-24T03:25:41;21.70;56.60
14585;DHT22;7379;51.506;11.876;2023-07-24T03:28:09;21.70;56.60
14585;DHT22;7379;51.506;11.876;2023-07-24T03:30:36;21.70;56.80
14585;DHT22;7379;51.506;11.876;2023-07-24T03:33:03;21.70;56.80
14585;DHT22;7379;51.506;11.876;2023-07-24T03:35:31;21.70;56.80
14585;DHT22;7379;51.506;11.876;2023-07-24T03:37:58;21.70;56.80
14585;DHT22;7379;51.506;11.876;2023-07-24T03:40:25;21.60;56.70
14585;DHT22;7379;51.506;11.876;2023-07-24T03:42:52;21.70;57.60
14585;DHT22;7379;51.506;11.876;2023-07-24T03:45:20;21.70;57.00
14585;DHT22;7379;51.506;11.876;2023-07-24T03:47:47;21.60;57.10
14585;DHT22;7379;51.506;11.876;2023-07-24T03:50:14;21.60;57.10
14585;DHT22;7379;51.506;11.876;2023-07-24T03:52:40;21.60;57.20
14585;DHT22;7379;51.506;11.876;2023-07-24T03:55:08;21.60;57.10
14585;DHT22;7379;51.506;11.876;2023-07-24T03:57:36;21.60;57.30
14585;DHT22;7379;51.506;11.876;2023-07-24T04:00:03;21.60;57.30
14585;DHT22;7379;51.506;11.876;2023-07-24T04:02:31;21.60;57.50
14585;DHT22;7379;51.506;11.876;2023-07-24T04:04:58;21.60;57.50
14585;DHT22;7379;51.506;11.876;2023-07-24T04:07:24;21.60;57.50
14585;DHT22;7379;51.506;11.876;2023-07-24T04:09:51;21.50;57.50
14585;DHT22;7379;51.506;11.876;2023-07-24T04:12:18;21.60;57.70
14585;DHT22;7379;51.506;11.876;2023-07-24T04:14:45;21.50;57.70
14585;DHT22;7379;51.506;11.876;2023-07-24T04:17:11;21.50;57.90
14585;DHT22;7379;51.506;11.876;2023-07-24T04:19:39;21.50;57.90
14585;DHT22;7379;51.506;11.876;2023-07-24T04:22:06;21.50;58.00
14585;DHT22;7379;51.506;11.876;2023-07-24T04:24:33;21.50;58.10
14585;DHT22;7379;51.506;11.876;2023-07-24T04:26:59;21.50;58.20
14585;DHT22;7379;51.506;11.876;2023-07-24T04:29:26;21.50;58.20
14585;DHT22;7379;51.506;11.876;2023-07-24T04:31:53;21.50;58.20
14585;DHT22;7379;51.506;11.876;2023-07-24T04:34:20;21.50;58.10
14585;DHT22;7379;51.506;11.876;2023-07-24T04:36:48;21.50;58.40
14585;DHT22;7379;51.506;11.876;2023-07-24T04:39:14;21.50;58.50
14585;DHT22;7379;51.506;11.876;2023-07-24T04:41:41;21.50;58.30
14585;DHT22;7379;51.506;11.876;2023-07-24T04:44:08;21.50;58.40
14585;DHT22;7379;51.506;11.876;2023-07-24T04:46:34;21.40;58.20
14585;DHT22;7379;51.506;11.876;2023-07-24T04:49:01;21.40;58.10
14585;DHT22;7379;51.506;11.876;2023-07-24T04:51:28;21.40;58.20
14585;DHT22;7379;51.506;11.876;2023-07-24T04:53:56;21.50;58.10
14585;DHT22;7379;51.506;11.876;2023-07-24T04:56:23;21.40;58.10
14585;DHT22;7379;51.506;11.876;2023-07-24T04:58:49;21.50;58.30
14585;DHT22;7379;51.506;11.876;2023-07-24T05:01:16;21.50;58.40
14585;DHT22;7379;51.506;11.876;2023-07-24T05:03:43;21.40;58.40
14585;DHT22;7379;51.506;11.876;2023-07-24T05:06:09;21.40;58.40
14585;DHT22;7379;51.506;11.876;2023-07-24T05:08:36;21.40;58.70
14585;DHT22;7379;51.506;11.876;2023-07-24T05:11:04;21.40;58.80
14585;DHT22;7379;51.506;11.876;2023-07-24T05:13:31;21.40;58.90
14585;DHT22;7379;51.506;11.876;2023-07-24T05:15:58;21.40;59.00
14585;DHT22;7379;51.506;11.876;2023-07-24T05:18:24;21.40;60.00
14585;DHT22;7379;51.506;11.876;2023-07-24T05:20:51;21.50;60.00
14585;DHT22;7379;51.506;11.876;2023-07-24T05:23:18;21.50;59.80
14585;DHT22;7379;51.506;11.876;2023-07-24T05:25:44;21.60;59.70
14585;DHT22;7379;51.506;11.876;2023-07-24T05:28:12;21.70;59.70
14585;DHT22;7379;51.506;11.876;2023-07-24T05:30:39;21.70;59.70
14585;DHT22;7379;51.506;11.876;2023-07-24T05:33:06;21.80;59.70
14585;DHT22;7379;51.506;11.876;2023-07-24T05:35:32;21.90;59.50
14585;DHT22;7379;51.506;11.876;2023-07-24T05:37:59;21.90;59.10
14585;DHT22;7379;51.506;11.876;2023-07-24T05:40:26;22.00;59.10
14585;DHT22;7379;51.506;11.876;2023-07-24T05:42:53;22.00;59.00
14585;DHT22;7379;51.506;11.876;2023-07-24T05:45:21;22.00;58.80
14585;DHT22;7379;51.506;11.876;2023-07-24T05:47:48;22.10;58.80
14585;DHT22;7379;51.506;11.876;2023-07-24T05:50:15;22.10;58.80
14585;DHT22;7379;51.506;11.876;2023-07-24T05:52:41;22.10;58.80
14585;DHT22;7379;51.506;11.876;2023-07-24T05:55:08;22.10;58.70
14585;DHT22;7379;51.506;11.876;2023-07-24T05:57:35;22.10;58.70
14585;DHT22;7379;51.506;11.876;2023-07-24T06:00:02;22.00;58.60
14585;DHT22;7379;51.506;11.876;2023-07-24T06:02:31;22.00;58.70
14585;DHT22;7379;51.506;11.876;2023-07-24T06:04:58;22.00;58.70
14585;DHT22;7379;51.506;11.876;2023-07-24T06:07:24;22.00;58.70
14585;DHT22;7379;51.506;11.876;2023-07-24T06:09:51;22.00;58.80
14585;DHT22;7379;51.506;11.876;2023-07-24T06:12:18;22.00;58.80
14585;DHT22;7379;51.506;11.876;2023-07-24T06:14:45;22.00;58.80
14585;DHT22;7379;51.506;11.876;2023-07-24T06:17:11;22.00;58.80
14585;DHT22;7379;51.506;11.876;2023-07-24T06:19:39;22.00;58.80
14585;DHT22;7379;51.506;11.876;2023-07-24T06:22:07;22.00;58.90
14585;DHT22;7379;51.506;11.876;2023-07-24T06:24:33;22.00;58.90
14585;DHT22;7379;51.506;11.876;2023-07-24T06:27:00;22.00;58.80
14585;DHT22;7379;51.506;11.876;2023-07-24T06:29:27;22.00;58.80
14585;DHT22;7379;51.506;11.876;2023-07-24T06:31:53;22.10;58.80
14585;DHT22;7379;51.506;11.876;2023-07-24T06:34:20;22.10;58.60
14585;DHT22;7379;51.506;11.876;2023-07-24T06:36:48;22.20;58.60
14585;DHT22;7379;51.506;11.876;2023-07-24T06:39:15;22.20;58.50
14585;DHT22;7379;51.506;11.876;2023-07-24T06:41:42;22.20;58.30
14585;DHT22;7379;51.506;11.876;2023-07-24T06:44:08;22.30;58.30
14585;DHT22;7379;51.506;11.876;2023-07-24T06:46:35;22.30;58.30
14585;DHT22;7379;51.506;11.876;2023-07-24T06:49:02;22.30;58.30
14585;DHT22;7379;51.506;11.876;2023-07-24T06:51:29;22.30;58.30
14585;DHT22;7379;51.506;11.876;2023-07-24T06:53:57;22.30;58.30
14585;DHT22;7379;51.506;11.876;2023-07-24T06:56:23;22.30;58.30
14585;DHT22;7379;51.506;11.876;2023-07-24T06:58:50;22.20;58.30
14585;DHT22;7379;51.506;11.876;2023-07-24T07:01:17;22.20;58.40
14585;DHT22;7379;51.506;11.876;2023-07-24T07:03:44;22.20;58.50
14585;DHT22;7379;51.506;11.876;2023-07-24T07:06:10;22.10;58.40
14585;DHT22;7379;51.506;11.876;2023-07-24T07:08:38;22.10;58.50
14585;DHT22;7379;51.506;11.876;2023-07-24T07:11:06;22.10;58.60
14585;DHT22;7379;51.506;11.876;2023-07-24T07:13:32;22.10;58.40
14585;DHT22;7379;51.506;11.876;2023-07-24T07:15:59;22.10;58.40
14585;DHT22;7379;51.506;11.876;2023-07-24T07:18:26;22.10;58.50
14585;DHT22;7379;51.506;11.876;2023-07-24T07:20:53;22.10;58.40
14585;DHT22;7379;51.506;11.876;2023-07-24T07:23:20;22.10;58.30
14585;DHT22;7379;51.506;11.876;2023-07-24T07:25:47;22.10;58.50
14585;DHT22;7379;51.506;11.876;2023-07-24T07:28:17;22.10;58.40
14585;DHT22;7379;51.506;11.876;2023-07-24T07:30:44;22.10;58.30
14585;DHT22;7379;51.506;11.876;2023-07-24T07:33:11;22.10;58.30
14585;DHT22;7379;51.506;11.876;2023-07-24T07:35:38;22.10;58.00
14585;DHT22;7379;51.506;11.876;2023-07-24T07:38:04;22.10;57.70
14585;DHT22;7379;51.506;11.876;2023-07-24T07:40:31;22.10;57.60
14585;DHT22;7379;51.506;11.876;2023-07-24T07:42:58;22.20;57.70
14585;DHT22;7379;51.506;11.876;2023-07-24T07:45:26;22.20;57.50
14585;DHT22;7379;51.506;11.876;2023-07-24T07:47:53;22.20;57.30
14585;DHT22;7379;51.506;11.876;2023-07-24T07:50:20;22.20;57.20
14585;DHT22;7379;51.506;11.876;2023-07-24T07:52:49;22.30;57.10
14585;DHT22;7379;51.506;11.876;2023-07-24T07:55:16;22.30;57.00
14585;DHT22;7379;51.506;11.876;2023-07-24T07:57:43;22.30;56.90
14585;DHT22;7379;51.506;11.876;2023-07-24T08:00:10;22.40;56.80
14585;DHT22;7379;51.506;11.876;2023-07-24T08:02:39;22.40;56.80
14585;DHT22;7379;51.506;11.876;2023-07-24T08:05:06;22.50;57.00
14585;DHT22;7379;51.506;11.876;2023-07-24T08:07:33;22.50;56.60
14585;DHT22;7379;51.506;11.876;2023-07-24T08:10:00;22.60;56.60
14585;DHT22;7379;51.506;11.876;2023-07-24T08:12:27;22.70;56.50
14585;DHT22;7379;51.506;11.876;2023-07-24T08:14:53;22.70;56.50
14585;DHT22;7379;51.506;11.876;2023-07-24T08:17:20;22.80;56.20
14585;DHT22;7379;51.506;11.876;2023-07-24T08:19:48;22.80;55.80
14585;DHT22;7379;51.506;11.876;2023-07-24T08:22:15;22.90;55.40
14585;DHT22;7379;51.506;11.876;2023-07-24T08:24:42;22.90;55.50
14585;DHT22;7379;51.506;11.876;2023-07-24T08:27:10;22.90;55.60
14585;DHT22;7379;51.506;11.876;2023-07-24T08:29:37;23.00;55.70
14585;DHT22;7379;51.506;11.876;2023-07-24T08:32:04;23.10;55.90
14585;DHT22;7379;51.506;11.876;2023-07-24T08:34:31;23.20;55.70
14585;DHT22;7379;51.506;11.876;2023-07-24T08:36:59;23.20;55.50
14585;DHT22;7379;51.506;11.876;2023-07-24T08:39:26;23.30;55.20
14585;DHT22;7379;51.506;11.876;2023-07-24T08:41:52;23.30;55.10
14585;DHT22;7379;51.506;11.876;2023-07-24T08:44:20;23.40;54.50
14585;DHT22;7379;51.506;11.876;2023-07-24T08:46:47;23.40;54.00
14585;DHT22;7379;51.506;11.876;2023-07-24T08:49:16;23.40;54.00
14585;DHT22;7379;51.506;11.876;2023-07-24T08:51:44;23.40;54.60
14585;DHT22;7379;51.506;11.876;2023-07-24T08:54:12;23.40;54.10
14585;DHT22;7379;51.506;11.876;2023-07-24T08:56:40;23.50;53.70
14585;DHT22;7379;51.506;11.876;2023-07-24T08:59:07;23.60;53.70
14585;DHT22;7379;51.506;11.876;2023-07-24T09:01:34;23.70;53.70
14585;DHT22;7379;51.506;11.876;2023-07-24T09:04:01;23.70;53.40
14585;DHT22;7379;51.506;11.876;2023-07-24T09:06:27;23.80;53.00
14585;DHT22;7379;51.506;11.876;2023-07-24T09:08:54;23.90;53.20
14585;DHT22;7379;51.506;11.876;2023-07-24T09:11:22;23.90;53.20
14585;DHT22;7379;51.506;11.876;2023-07-24T09:13:49;24.10;52.60
14585;DHT22;7379;51.506;11.876;2023-07-24T09:16:23;24.10;51.70
14585;DHT22;7379;51.506;11.876;2023-07-24T09:18:50;24.20;51.50
14585;DHT22;7379;51.506;11.876;2023-07-24T09:21:27;24.20;51.50
14585;DHT22;7379;51.506;11.876;2023-07-24T09:23:54;24.30;51.50
14585;DHT22;7379;51.506;11.876;2023-07-24T09:26:22;24.40;51.50
14585;DHT22;7379;51.506;11.876;2023-07-24T09:28:52;24.40;51.50
14585;DHT22;7379;51.506;11.876;2023-07-24T09:31:19;24.50;51.10
14585;DHT22;7379;51.506;11.876;2023-07-24T09:33:46;24.60;51.10
14585;DHT22;7379;51.506;11.876;2023-07-24T09:36:13;24.60;51.20
14585;DHT22;7379;51.506;11.876;2023-07-24T09:38:40;24.70;50.70
14585;DHT22;7379;51.506;11.876;2023-07-24T09:41:08;24.70;50.60
14585;DHT22;7379;51.506;11.876;2023-07-24T09:43:36;24.70;50.30
14585;DHT22;7379;51.506;11.876;2023-07-24T09:46:04;24.70;50.70
14585;DHT22;7379;51.506;11.876;2023-07-24T09:48:31;24.60;50.30
14585;DHT22;7379;51.506;11.876;2023-07-24T09:50:59;24.50;50.40
14585;DHT22;7379;51.506;11.876;2023-07-24T09:53:32;24.50;50.70
14585;DHT22;7379;51.506;11.876;2023-07-24T09:56:02;24.50;51.20
14585;DHT22;7379;51.506;11.876;2023-07-24T09:58:30;24.40;50.30
14585;DHT22;7379;51.506;11.876;2023-07-24T10:01:00;24.50;50.10
14585;DHT22;7379;51.506;11.876;2023-07-24T10:03:28;24.60;50.40
14585;DHT22;7379;51.506;11.876;2023-07-24T10:05:55;24.60;50.80
14585;DHT22;7379;51.506;11.876;2023-07-24T10:08:22;24.70;50.50
14585;DHT22;7379;51.506;11.876;2023-07-24T10:10:51;24.70;50.50
14585;DHT22;7379;51.506;11.876;2023-07-24T10:13:19;24.70;50.60
14585;DHT22;7379;51.506;11.876;2023-07-24T10:15:47;24.70;50.50
14585;DHT22;7379;51.506;11.876;2023-07-24T10:18:16;24.80;50.80
14585;DHT22;7379;51.506;11.876;2023-07-24T10:20:43;24.80;50.60
14585;DHT22;7379;51.506;11.876;2023-07-24T10:23:11;24.80;50.50
14585;DHT22;7379;51.506;11.876;2023-07-24T10:25:45;24.80;50.40
14585;DHT22;7379;51.506;11.876;2023-07-24T10:28:12;24.80;50.50
14585;DHT22;7379;51.506;11.876;2023-07-24T10:30:42;24.80;49.80
14585;DHT22;7379;51.506;11.876;2023-07-24T10:33:10;24.80;50.30
14585;DHT22;7379;51.506;11.876;2023-07-24T10:35:40;24.80;49.80
14585;DHT22;7379;51.506;11.876;2023-07-24T10:38:07;24.80;49.70
14585;DHT22;7379;51.506;11.876;2023-07-24T10:40:34;24.80;50.00
14585;DHT22;7379;51.506;11.876;2023-07-24T10:43:05;24.80;49.90
14585;DHT22;7379;51.506;11.876;2023-07-24T10:45:39;24.80;49.70
14585;DHT22;7379;51.506;11.876;2023-07-24T10:48:06;24.80;49.00
14585;DHT22;7379;51.506;11.876;2023-07-24T10:50:41;24.80;49.40
14585;DHT22;7379;51.506;11.876;2023-07-24T10:53:09;24.90;49.80
14585;DHT22;7379;51.506;11.876;2023-07-24T10:55:35;24.90;49.50
14585;DHT22;7379;51.506;11.876;2023-07-24T10:58:02;25.00;49.40
14585;DHT22;7379;51.506;11.876;2023-07-24T11:00:29;25.00;50.00
14585;DHT22;7379;51.506;11.876;2023-07-24T11:02:56;25.20;49.20
14585;DHT22;7379;51.506;11.876;2023-07-24T11:05:23;25.20;49.00
14585;DHT22;7379;51.506;11.876;2023-07-24T11:07:51;25.30;49.20
14585;DHT22;7379;51.506;11.876;2023-07-24T11:10:18;25.30;48.60
14585;DHT22;7379;51.506;11.876;2023-07-24T11:12:45;25.40;48.50
14585;DHT22;7379;51.506;11.876;2023-07-24T11:15:13;25.40;48.50
14585;DHT22;7379;51.506;11.876;2023-07-24T11:17:41;25.40;48.90
14585;DHT22;7379;51.506;11.876;2023-07-24T11:20:09;25.30;48.40
14585;DHT22;7379;51.506;11.876;2023-07-24T11:22:38;25.30;48.10
14585;DHT22;7379;51.506;11.876;2023-07-24T11:25:08;25.40;48.30
14585;DHT22;7379;51.506;11.876;2023-07-24T11:27:38;25.40;48.20
14585;DHT22;7379;51.506;11.876;2023-07-24T11:30:08;25.40;47.90
14585;DHT22;7379;51.506;11.876;2023-07-24T11:32:35;25.40;48.10
14585;DHT22;7379;51.506;11.876;2023-07-24T11:35:02;25.40;48.10
14585;DHT22;7379;51.506;11.876;2023-07-24T11:37:29;25.40;47.80
14585;DHT22;7379;51.506;11.876;2023-07-24T11:39:57;25.40;47.80
14585;DHT22;7379;51.506;11.876;2023-07-24T11:42:26;25.40;47.30
14585;DHT22;7379;51.506;11.876;2023-07-24T11:44:53;25.30;47.20
14585;DHT22;7379;51.506;11.876;2023-07-24T11:47:20;25.40;47.00
14585;DHT22;7379;51.506;11.876;2023-07-24T11:49:57;25.40;47.00
14585;DHT22;7379;51.506;11.876;2023-07-24T11:52:24;25.50;46.70
14585;DHT22;7379;51.506;11.876;2023-07-24T11:54:57;25.50;46.20
14585;DHT22;7379;51.506;11.876;2023-07-24T11:57:28;25.60;46.40
14585;DHT22;7379;51.506;11.876;2023-07-24T11:59:55;25.60;46.60
14585;DHT22;7379;51.506;11.876;2023-07-24T12:02:25;25.60;46.20
14585;DHT22;7379;51.506;11.876;2023-07-24T12:04:56;25.60;45.90
14585;DHT22;7379;51.506;11.876;2023-07-24T12:07:29;25.70;46.10
14585;DHT22;7379;51.506;11.876;2023-07-24T12:09:56;25.70;46.40
14585;DHT22;7379;51.506;11.876;2023-07-24T12:12:23;25.70;46.40
14585;DHT22;7379;51.506;11.876;2023-07-24T12:14:51;25.70;46.60
14585;DHT22;7379;51.506;11.876;2023-07-24T12:17:18;25.60;47.00
14585;DHT22;7379;51.506;11.876;2023-07-24T12:19:45;25.60;47.10
14585;DHT22;7379;51.506;11.876;2023-07-24T12:22:13;25.60;47.10
14585;DHT22;7379;51.506;11.876;2023-07-24T12:24:40;25.50;47.30
14585;DHT22;7379;51.506;11.876;2023-07-24T12:27:07;25.40;47.50
14585;DHT22;7379;51.506;11.876;2023-07-24T12:29:33;25.30;47.60
14585;DHT22;7379;51.506;11.876;2023-07-24T12:32:01;25.30;47.80
14585;DHT22;7379;51.506;11.876;2023-07-24T12:34:28;25.20;47.90
14585;DHT22;7379;51.506;11.876;2023-07-24T12:36:55;25.20;48.10
14585;DHT22;7379;51.506;11.876;2023-07-24T12:39:22;25.10;47.90
14585;DHT22;7379;51.506;11.876;2023-07-24T12:41:48;25.10;48.20
14585;DHT22;7379;51.506;11.876;2023-07-24T12:44:15;25.10;48.10
14585;DHT22;7379;51.506;11.876;2023-07-24T12:46:42;25.10;48.40
14585;DHT22;7379;51.506;11.876;2023-07-24T12:49:10;25.00;48.40
14585;DHT22;7379;51.506;11.876;2023-07-24T12:51:37;25.00;48.40
14585;DHT22;7379;51.506;11.876;2023-07-24T12:54:03;25.00;48.50
14585;DHT22;7379;51.506;11.876;2023-07-24T12:56:30;25.00;48.50
14585;DHT22;7379;51.506;11.876;2023-07-24T12:58:57;25.00;48.60
14585;DHT22;7379;51.506;11.876;2023-07-24T13:01:24;25.10;48.70
14585;DHT22;7379;51.506;11.876;2023-07-24T13:03:52;25.10;48.60
14585;DHT22;7379;51.506;11.876;2023-07-24T13:06:20;25.10;48.80
14585;DHT22;7379;51.506;11.876;2023-07-24T13:08:47;25.10;48.70
14585;DHT22;7379;51.506;11.876;2023-07-24T13:11:14;25.10;48.70
14585;DHT22;7379;51.506;11.876;2023-07-24T13:13:41;25.20;48.60
14585;DHT22;7379;51.506;11.876;2023-07-24T13:16:07;25.20;48.60
14585;DHT22;7379;51.506;11.876;2023-07-24T13:18:34;25.20;49.20
14585;DHT22;7379;51.506;11.876;2023-07-24T13:21:01;25.20;48.50
14585;DHT22;7379;51.506;11.876;2023-07-24T13:23:29;25.30;48.70
14585;DHT22;7379;51.506;11.876;2023-07-24T13:25:56;25.30;48.70
14585;DHT22;7379;51.506;11.876;2023-07-24T13:28:22;25.30;48.40
14585;DHT22;7379;51.506;11.876;2023-07-24T13:30:49;25.40;48.40
14585;DHT22;7379;51.506;11.876;2023-07-24T13:33:16;25.40;48.50
14585;DHT22;7379;51.506;11.876;2023-07-24T13:35:42;25.40;48.30
14585;DHT22;7379;51.506;11.876;2023-07-24T13:38:09;25.40;48.30
14585;DHT22;7379;51.506;11.876;2023-07-24T13:40:38;25.40;48.50
14585;DHT22;7379;51.506;11.876;2023-07-24T13:43:04;25.40;48.50
14585;DHT22;7379;51.506;11.876;2023-07-24T13:45:31;25.40;48.50
14585;DHT22;7379;51.506;11.876;2023-07-24T13:47:58;25.50;48.90
14585;DHT22;7379;51.506;11.876;2023-07-24T13:50:25;25.50;49.00
14585;DHT22;7379;51.506;11.876;2023-07-24T13:52:51;25.50;49.10
14585;DHT22;7379;51.506;11.876;2023-07-24T13:55:18;25.50;49.20
14585;DHT22;7379;51.506;11.876;2023-07-24T13:57:46;25.50;49.20
14585;DHT22;7379;51.506;11.876;2023-07-24T14:00:13;25.60;49.30
14585;DHT22;7379;51.506;11.876;2023-07-24T14:02:40;25.60;49.20
14585;DHT22;7379;51.506;11.876;2023-07-24T14:05:08;25.60;49.00
14585;DHT22;7379;51.506;11.876;2023-07-24T14:07:35;25.50;49.00
14585;DHT22;7379;51.506;11.876;2023-07-24T14:10:01;25.50;49.10
14585;DHT22;7379;51.506;11.876;2023-07-24T14:12:28;25.60;49.10
14585;DHT22;7379;51.506;11.876;2023-07-24T14:14:56;25.60;49.10
14585;DHT22;7379;51.506;11.876;2023-07-24T14:17:23;25.60;49.10
14585;DHT22;7379;51.506;11.876;2023-07-24T14:19:50;25.60;48.90
14585;DHT22;7379;51.506;11.876;2023-07-24T14:22:16;25.60;48.80
14585;DHT22;7379;51.506;11.876;2023-07-24T14:24:43;25.60;48.80
14585;DHT22;7379;51.506;11.876;2023-07-24T14:27:11;25.60;49.00
14585;DHT22;7379;51.506;11.876;2023-07-24T14:29:38;25.60;49.00
14585;DHT22;7379;51.506;11.876;2023-07-24T14:32:07;25.50;48.90
14585;DHT22;7379;51.506;11.876;2023-07-24T14:34:33;25.50;49.00
14585;DHT22;7379;51.506;11.876;2023-07-24T14:37:00;25.60;49.20
14585;DHT22;7379;51.506;11.876;2023-07-24T14:39:27;25.80;48.80
14585;DHT22;7379;51.506;11.876;2023-07-24T14:41:53;26.10;48.40
14585;DHT22;7379;51.506;11.876;2023-07-24T14:44:20;26.50;48.00
14585;DHT22;7379;51.506;11.876;2023-07-24T14:46:47;26.80;47.20
14585;DHT22;7379;51.506;11.876;2023-07-24T14:49:15;27.10;46.80
14585;DHT22;7379;51.506;11.876;2023-07-24T14:51:42;27.30;46.10
14585;DHT22;7379;51.506;11.876;2023-07-24T14:54:08;27.60;45.50
14585;DHT22;7379;51.506;11.876;2023-07-24T14:56:35;27.60;45.50
14585;DHT22;7379;51.506;11.876;2023-07-24T14:59:02;27.50;45.40
14585;DHT22;7379;51.506;11.876;2023-07-24T15:01:29;27.30;45.70
14585;DHT22;7379;51.506;11.876;2023-07-24T15:03:56;27.10;46.10
14585;DHT22;7379;51.506;11.876;2023-07-24T15:06:24;26.90;46.20
14585;DHT22;7379;51.506;11.876;2023-07-24T15:08:51;26.90;46.40
14585;DHT22;7379;51.506;11.876;2023-07-24T15:11:21;26.90;46.60
14585;DHT22;7379;51.506;11.876;2023-07-24T15:13:48;27.00;46.30
14585;DHT22;7379;51.506;11.876;2023-07-24T15:16:15;27.00;46.40
14585;DHT22;7379;51.506;11.876;2023-07-24T15:18:41;27.00;46.90
14585;DHT22;7379;51.506;11.876;2023-07-24T15:21:08;26.90;47.10
14585;DHT22;7379;51.506;11.876;2023-07-24T15:23:36;26.90;46.70
14585;DHT22;7379;51.506;11.876;2023-07-24T15:26:03;26.90;46.60
14585;DHT22;7379;51.506;11.876;2023-07-24T15:28:30;26.80;46.80
14585;DHT22;7379;51.506;11.876;2023-07-24T15:30:57;26.70;46.90